createdAt,value
2023-03-07T00:01:27.461Z,1.65
2023-03-07T00:03:55.203Z,1.69
2023-03-07T00:06:22.021Z,1.70
2023-03-07T00:08:54.001Z,1.69
2023-03-07T00:11:20.852Z,1.68
2023-03-07T00:13:47.605Z,1.62
2023-03-07T00:16:18.956Z,1.69
2023-03-07T00:18:46.062Z,1.65
2023-03-07T00:21:17.382Z,1.59
2023-03-07T00:23:45.682Z,1.59
2023-03-07T00:26:16.393Z,1.61
2023-03-07T00:28:43.782Z,1.61
2023-03-07T00:31:11.794Z,1.59
2023-03-07T00:33:39.610Z,1.63
2023-03-07T00:36:24.508Z,1.59
2023-03-07T00:38:52.124Z,1.62
2023-03-07T00:41:22.793Z,1.68
2023-03-07T00:43:49.984Z,1.64
2023-03-07T00:46:19.343Z,1.66
2023-03-07T00:48:46.777Z,1.58
2023-03-07T00:51:16.544Z,1.55
2023-03-07T00:53:44.024Z,1.58
2023-03-07T00:56:25.232Z,1.62
2023-03-07T00:58:52.849Z,1.65
2023-03-07T01:01:23.550Z,1.57
2023-03-07T01:03:53.752Z,1.51
2023-03-07T01:06:25.011Z,1.55
2023-03-07T01:08:51.811Z,1.57
2023-03-07T01:11:18.664Z,1.58
2023-03-07T01:13:45.756Z,1.51
2023-03-07T01:16:18.643Z,1.55
2023-03-07T01:18:46.128Z,1.51
2023-03-07T01:21:19.727Z,1.50
2023-03-07T01:23:47.018Z,1.47
2023-03-07T01:26:20.122Z,1.51
2023-03-07T01:28:47.542Z,1.50
2023-03-07T01:31:14.566Z,1.45
2023-03-07T01:33:41.695Z,1.30
2023-03-07T01:36:28.409Z,1.38
2023-03-07T01:38:58.348Z,1.44
2023-03-07T01:41:25.312Z,1.41
2023-03-07T01:43:52.096Z,1.28
2023-03-07T01:46:18.793Z,1.33
2023-03-07T01:49:03.907Z,1.33
2023-03-07T01:51:33.232Z,1.25
2023-03-07T01:54:01.896Z,1.25
2023-03-07T01:56:29.416Z,1.12
2023-03-07T01:58:56.565Z,1.15
2023-03-07T02:01:26.381Z,1.13
2023-03-07T02:04:06.532Z,1.16
2023-03-07T02:06:37.818Z,1.14
2023-03-07T02:09:13.395Z,1.19
2023-03-07T02:11:44.685Z,1.17
2023-03-07T02:14:11.441Z,1.14
2023-03-07T02:16:38.934Z,1.11
2023-03-07T02:19:33.432Z,1.19
2023-03-07T02:22:17.514Z,1.13
2023-03-07T02:24:57.196Z,1.16
2023-03-07T02:27:26.082Z,1.11
2023-03-07T02:29:53.313Z,1.11
2023-03-07T02:32:20.567Z,1.12
2023-03-07T02:34:47.325Z,1.01
2023-03-07T02:37:21.938Z,1.01
2023-03-07T02:39:48.997Z,0.94
2023-03-07T02:42:22.601Z,0.93
2023-03-07T02:45:00.449Z,0.90
2023-03-07T02:47:28.138Z,0.86
2023-03-07T02:49:55.162Z,0.63
2023-03-07T02:52:23.047Z,0.63
2023-03-07T02:54:49.814Z,0.56
2023-03-07T02:57:16.599Z,0.45
2023-03-07T02:59:43.379Z,0.51
2023-03-07T03:02:10.129Z,0.58
2023-03-07T03:04:36.900Z,0.51
2023-03-07T03:07:03.802Z,0.58
2023-03-07T03:09:31.588Z,0.54
2023-03-07T03:11:58.482Z,0.53
2023-03-07T03:14:25.605Z,0.53
2023-03-07T03:16:53.712Z,0.51
2023-03-07T03:19:21.043Z,0.50
2023-03-07T03:21:48.784Z,0.47
2023-03-07T03:24:15.707Z,0.38
2023-03-07T03:26:42.528Z,0.50
2023-03-07T03:29:09.883Z,0.24
2023-03-07T03:31:36.774Z,0.18
2023-03-07T03:34:05.731Z,0.26
2023-03-07T03:36:33.142Z,0.18
2023-03-07T03:39:00.505Z,0.25
2023-03-07T03:41:27.662Z,0.17
2023-03-07T03:43:54.518Z,0.24
2023-03-07T03:46:21.402Z,0.23
2023-03-07T03:48:53.473Z,0.19
2023-03-07T03:51:20.853Z,0.23
2023-03-07T03:53:47.676Z,0.16
2023-03-07T03:56:19.068Z,0.17
2023-03-07T03:58:55.392Z,0.06
2023-03-07T04:01:24.862Z,0.20
2023-03-07T04:03:53.311Z,0.18
2023-03-07T04:06:29.372Z,0.02
2023-03-07T04:08:57.244Z,-0.06
2023-03-07T04:11:25.226Z,-0.09
2023-03-07T04:13:53.213Z,-0.13
2023-03-07T04:16:22.485Z,-0.12
2023-03-07T04:18:51.112Z,-0.18
2023-03-07T04:21:19.094Z,-0.39
2023-03-07T04:23:45.823Z,-0.49
2023-03-07T04:26:12.731Z,-0.34
2023-03-07T04:28:45.291Z,-0.29
2023-03-07T04:31:15.065Z,-0.26
2023-03-07T04:33:42.427Z,-0.27
2023-03-07T04:36:10.504Z,-0.21
2023-03-07T04:38:39.183Z,-0.24
2023-03-07T04:41:07.347Z,-0.36
2023-03-07T04:43:34.708Z,-0.41
2023-03-07T04:46:01.838Z,-0.38
2023-03-07T04:48:28.710Z,-0.36
2023-03-07T04:50:55.470Z,-0.38
2023-03-07T04:53:22.562Z,-0.36
2023-03-07T04:55:49.341Z,-0.41
2023-03-07T04:58:16.494Z,-0.35
2023-03-07T05:00:45.306Z,-0.36
2023-03-07T05:03:13.717Z,-0.41
2023-03-07T05:05:40.671Z,-0.45
2023-03-07T05:08:08.089Z,-0.46
2023-03-07T05:10:35.506Z,-0.43
2023-03-07T05:13:02.330Z,-0.51
2023-03-07T05:15:29.248Z,-0.50
2023-03-07T05:17:56.381Z,-0.48
2023-03-07T05:20:23.639Z,-0.36
2023-03-07T05:22:50.797Z,-0.32
2023-03-07T05:25:17.850Z,-0.39
2023-03-07T05:27:44.732Z,-0.33
2023-03-07T05:30:12.767Z,-0.29
2023-03-07T05:32:40.322Z,-0.22
2023-03-07T05:35:09.608Z,-0.27
2023-03-07T05:37:36.549Z,-0.23
2023-03-07T05:40:09.212Z,-0.19
2023-03-07T05:42:35.947Z,-0.29
2023-03-07T05:45:05.941Z,-0.25
2023-03-07T05:47:33.008Z,-0.30
2023-03-07T05:49:59.729Z,-0.29
2023-03-07T05:52:27.551Z,-0.36
2023-03-07T05:54:54.380Z,-0.43
2023-03-07T05:57:22.897Z,-0.38
2023-03-07T05:59:49.692Z,-0.41
2023-03-07T06:02:16.510Z,-0.41
2023-03-07T06:04:44.296Z,-0.48
2023-03-07T06:07:10.999Z,-0.53
2023-03-07T06:09:37.746Z,-0.51
2023-03-07T06:12:05.000Z,-0.50
2023-03-07T06:14:32.967Z,-0.51
2023-03-07T06:16:59.697Z,-0.55
2023-03-07T06:19:26.592Z,-0.53
2023-03-07T06:21:53.316Z,-0.56
2023-03-07T06:24:20.053Z,-0.62
2023-03-07T06:26:46.843Z,-0.71
2023-03-07T06:29:13.806Z,-0.70
2023-03-07T06:31:40.685Z,-0.68
2023-03-07T06:34:08.637Z,-0.68
2023-03-07T06:36:35.473Z,-0.70
2023-03-07T06:39:02.272Z,-0.70
2023-03-07T06:41:29.048Z,-0.71
2023-03-07T06:43:55.923Z,-0.70
2023-03-07T06:46:22.675Z,-0.58
2023-03-07T06:48:52.100Z,-0.61
2023-03-07T06:51:18.950Z,-0.61
2023-03-07T06:53:45.795Z,-0.64
2023-03-07T06:56:12.567Z,-0.58
2023-03-07T06:58:39.338Z,-0.58
2023-03-07T07:01:06.094Z,-0.60
2023-03-07T07:03:32.865Z,-0.50
2023-03-07T07:05:59.628Z,-0.53
2023-03-07T07:08:26.386Z,-0.45
2023-03-07T07:10:53.157Z,-0.39
2023-03-07T07:13:19.892Z,-0.39
2023-03-07T07:15:46.628Z,-0.18
2023-03-07T07:18:14.164Z,-0.13
2023-03-07T07:20:41.034Z,-0.05
2023-03-07T07:23:07.803Z,0.12
2023-03-07T07:25:34.593Z,0.17
2023-03-07T07:28:01.350Z,0.29
2023-03-07T07:30:28.109Z,0.28
2023-03-07T07:32:55.011Z,0.37
2023-03-07T07:35:22.402Z,0.45
2023-03-07T07:37:49.161Z,0.48
2023-03-07T07:40:16.137Z,0.55
2023-03-07T07:42:43.530Z,0.64
2023-03-07T07:45:11.292Z,0.69
2023-03-07T07:47:38.100Z,0.83
2023-03-07T07:50:05.661Z,0.89
2023-03-07T07:52:32.366Z,0.99
2023-03-07T07:54:59.124Z,1.03
2023-03-07T07:57:25.874Z,1.11
2023-03-07T07:59:52.641Z,1.21
2023-03-07T08:02:19.401Z,1.17
2023-03-07T08:04:47.432Z,1.32
2023-03-07T08:07:14.651Z,1.32
2023-03-07T08:09:41.379Z,1.43
2023-03-07T08:12:12.621Z,1.47
2023-03-07T08:14:40.585Z,1.57
2023-03-07T08:17:07.456Z,1.63
2023-03-07T08:19:34.215Z,1.68
2023-03-07T08:22:02.317Z,1.84
2023-03-07T08:24:39.919Z,1.73
2023-03-07T08:27:07.142Z,1.66
2023-03-07T08:29:35.319Z,1.71
2023-03-07T08:32:02.129Z,1.87
2023-03-07T08:34:28.890Z,1.96
2023-03-07T08:36:55.667Z,1.99
2023-03-07T08:39:22.476Z,1.97
2023-03-07T08:41:49.201Z,2.12
2023-03-07T08:44:16.004Z,2.07
2023-03-07T08:46:42.808Z,1.98
2023-03-07T08:49:09.617Z,2.02
2023-03-07T08:51:36.406Z,2.13
2023-03-07T08:54:03.150Z,2.25
2023-03-07T08:56:29.882Z,2.30
2023-03-07T08:58:56.610Z,2.35
2023-03-07T09:01:23.475Z,2.30
2023-03-07T09:03:50.296Z,2.42
2023-03-07T09:06:20.391Z,2.46
2023-03-07T09:08:48.308Z,2.55
2023-03-07T09:11:15.707Z,2.61
2023-03-07T09:13:51.476Z,2.74
2023-03-07T09:16:19.248Z,2.68
2023-03-07T09:18:46.030Z,2.58
2023-03-07T09:21:12.791Z,2.70
2023-03-07T09:23:39.557Z,2.81
2023-03-07T09:26:06.664Z,2.94
2023-03-07T09:28:33.408Z,2.99
2023-03-07T09:31:00.473Z,3.10
2023-03-07T09:33:27.533Z,3.13
2023-03-07T09:35:54.436Z,3.04
2023-03-07T09:38:21.195Z,3.14
2023-03-07T09:40:48.821Z,3.24
2023-03-07T09:43:23.052Z,3.37
2023-03-07T09:46:20.346Z,3.62
2023-03-07T09:49:18.242Z,3.55
2023-03-07T09:51:49.475Z,3.79
2023-03-07T09:54:26.074Z,3.82
2023-03-07T09:56:59.414Z,3.87
2023-03-07T09:59:39.986Z,3.85
2023-03-07T10:02:32.132Z,3.74
2023-03-07T10:05:22.577Z,3.91
2023-03-07T10:07:49.675Z,4.06
2023-03-07T10:10:52.399Z,4.24
2023-03-07T10:13:26.368Z,4.34
2023-03-07T10:16:12.149Z,4.52
2023-03-07T10:19:34.436Z,4.69
2023-03-07T10:22:43.807Z,4.87
2023-03-07T10:25:31.706Z,4.79
2023-03-07T10:28:33.336Z,4.97
2023-03-07T10:31:24.686Z,5.29
2023-03-07T10:33:54.680Z,5.28
2023-03-07T10:36:41.581Z,5.39
2023-03-07T10:39:43.917Z,5.48
2023-03-07T10:42:16.688Z,5.42
2023-03-07T10:44:46.241Z,5.37
2023-03-07T10:47:30.993Z,5.48
2023-03-07T10:50:27.356Z,5.72
2023-03-07T10:52:58.055Z,6.01
2023-03-07T10:55:43.321Z,6.22
2023-03-07T10:58:27.106Z,6.42
2023-03-07T11:01:15.809Z,6.65
2023-03-07T11:03:58.802Z,6.78
2023-03-07T15:21:23.566Z,8.50
2023-03-07T15:23:59.071Z,8.64
2023-03-07T15:26:27.854Z,8.39
2023-03-07T15:29:05.593Z,8.43
2023-03-07T15:31:54.055Z,8.42
2023-03-07T15:35:16.514Z,8.50
2023-03-07T15:38:08.180Z,8.29
2023-03-07T15:40:36.773Z,8.38
2023-03-07T15:43:04.479Z,8.15
2023-03-07T15:45:40.464Z,7.98
2023-03-07T15:48:24.752Z,7.95
2023-03-07T15:51:00.458Z,7.74
2023-03-07T15:53:32.044Z,7.90
2023-03-07T15:56:20.383Z,7.71
2023-03-07T15:58:48.008Z,7.60
2023-03-07T16:01:26.802Z,7.56
2023-03-07T16:03:57.797Z,7.43
2023-03-07T16:06:44.783Z,7.33
2023-03-07T16:09:17.991Z,7.31
2023-03-07T16:11:46.401Z,7.17
2023-03-07T16:14:30.449Z,7.08
2023-03-07T16:17:01.349Z,7.07
2023-03-07T16:19:28.848Z,6.85
2023-03-07T16:21:55.698Z,6.77
2023-03-07T16:24:22.518Z,6.59
2023-03-07T16:26:49.621Z,6.52
2023-03-07T16:29:21.730Z,6.62
2023-03-07T16:31:49.038Z,6.63
2023-03-07T16:34:21.981Z,6.40
2023-03-07T16:36:48.780Z,6.36
2023-03-07T16:39:18.120Z,6.35
2023-03-07T16:41:47.879Z,6.16
2023-03-07T16:44:20.405Z,5.99
2023-03-07T16:46:59.073Z,5.80
2023-03-07T16:49:25.875Z,5.75
2023-03-07T16:52:05.151Z,5.72
2023-03-07T16:54:33.329Z,5.63
2023-03-07T16:57:02.055Z,5.52
2023-03-07T16:59:35.390Z,5.35
2023-03-07T17:02:03.378Z,5.19
2023-03-07T17:04:30.217Z,5.10
2023-03-07T17:07:04.394Z,4.91
2023-03-07T17:09:31.476Z,4.87
2023-03-07T17:11:58.482Z,4.73
2023-03-07T17:14:25.361Z,4.76
2023-03-07T17:16:52.119Z,4.54
2023-03-07T17:19:28.297Z,4.43
2023-03-07T17:21:56.146Z,4.26
2023-03-07T17:24:22.902Z,4.06
2023-03-07T17:26:50.292Z,4.14
2023-03-07T17:29:34.605Z,4.08
2023-03-07T17:32:01.422Z,3.98
2023-03-07T17:34:32.124Z,3.99
2023-03-07T17:37:00.380Z,3.86
2023-03-07T17:39:29.777Z,3.92
2023-03-07T17:41:58.202Z,3.96
2023-03-07T17:44:25.276Z,3.81
2023-03-07T17:46:53.537Z,3.88
2023-03-07T17:49:21.583Z,3.69
2023-03-07T17:51:48.974Z,3.67
2023-03-07T17:54:17.088Z,3.61
2023-03-07T17:56:43.896Z,3.54
2023-03-07T17:59:10.690Z,3.46
2023-03-07T18:01:38.129Z,3.43
2023-03-07T18:04:06.534Z,3.25
2023-03-07T18:06:34.173Z,3.18
2023-03-07T18:09:01.804Z,3.32
2023-03-07T18:11:28.706Z,3.33
2023-03-07T18:13:55.900Z,3.26
2023-03-07T18:16:22.783Z,3.33
2023-03-07T18:18:58.735Z,3.36
2023-03-07T18:21:26.639Z,3.31
2023-03-07T18:23:53.607Z,3.34
2023-03-07T18:26:21.693Z,3.43
2023-03-07T18:28:50.086Z,3.39
2023-03-07T18:31:21.541Z,3.45
2023-03-07T18:33:51.114Z,3.43
2023-03-07T18:36:18.557Z,3.39
2023-03-07T18:38:45.542Z,3.38
2023-03-07T18:41:16.117Z,3.48
2023-03-07T18:43:43.427Z,3.47
2023-03-07T18:46:14.351Z,3.33
2023-03-07T18:48:41.290Z,3.41
2023-03-07T18:51:11.773Z,3.59
2023-03-07T18:53:39.599Z,3.41
2023-03-07T18:56:11.009Z,3.31
2023-03-07T18:58:38.079Z,3.36
2023-03-07T19:01:28.740Z,3.48
2023-03-07T19:03:57.705Z,3.38
2023-03-07T19:06:31.600Z,3.43
2023-03-07T19:08:58.444Z,3.53
2023-03-07T19:11:25.196Z,3.26
2023-03-07T19:13:51.932Z,3.48
2023-03-07T19:16:23.724Z,3.56
2023-03-07T19:18:51.757Z,3.53
2023-03-07T19:21:25.908Z,3.57
2023-03-07T19:23:54.581Z,3.56
2023-03-07T19:26:23.205Z,3.51
2023-03-07T19:28:53.064Z,3.53
2023-03-07T19:31:25.589Z,3.54
2023-03-07T19:33:53.100Z,3.55
2023-03-07T19:36:27.181Z,3.58
2023-03-07T19:38:57.712Z,3.48
2023-03-07T19:41:27.196Z,3.38
2023-03-07T19:43:56.464Z,3.35
2023-03-07T19:46:23.793Z,3.39
2023-03-07T19:48:50.704Z,3.29
2023-03-07T19:51:20.942Z,3.45
2023-03-07T19:53:47.740Z,3.45
2023-03-07T19:56:27.685Z,3.48
2023-03-07T19:58:55.108Z,3.43
2023-03-07T20:01:23.775Z,3.48
2023-03-07T20:03:51.609Z,3.50
2023-03-07T20:06:26.603Z,3.53
2023-03-07T20:08:55.148Z,3.43
2023-03-07T20:11:27.203Z,3.49
2023-03-07T20:13:56.559Z,3.55
2023-03-07T20:16:27.171Z,3.51
2023-03-07T20:18:54.363Z,3.47
2023-03-07T20:21:26.274Z,3.44
2023-03-07T20:23:55.801Z,3.38
2023-03-07T20:26:32.437Z,3.32
2023-03-07T20:29:00.571Z,3.13
2023-03-07T20:31:28.533Z,3.21
2023-03-07T20:33:58.847Z,3.19
2023-03-07T20:36:32.052Z,3.20
2023-03-07T20:39:02.983Z,3.15
2023-03-07T20:41:32.402Z,3.16
2023-03-07T20:44:05.419Z,3.07
2023-03-07T20:46:33.152Z,3.02
2023-03-07T20:49:01.901Z,3.09
2023-03-07T20:51:32.044Z,2.97
2023-03-07T20:54:05.135Z,2.96
2023-03-07T20:56:34.293Z,3.07
2023-03-07T20:59:01.811Z,2.96
2023-03-07T21:01:33.751Z,3.04
2023-03-07T21:04:08.269Z,3.15
2023-03-07T21:06:40.682Z,3.06
2023-03-07T21:09:10.264Z,3.05
2023-03-07T21:11:40.454Z,3.14
2023-03-07T21:14:08.516Z,3.11
2023-03-07T21:16:35.405Z,2.94
2023-03-07T21:19:07.290Z,2.83
2023-03-07T21:21:35.904Z,2.79
2023-03-07T21:24:03.244Z,2.90
2023-03-07T21:26:34.211Z,2.94
2023-03-07T21:29:01.104Z,2.87
2023-03-07T21:31:31.587Z,2.90
2023-03-07T21:34:02.067Z,2.90
2023-03-07T21:36:31.565Z,2.79
2023-03-07T21:38:59.326Z,2.89
2023-03-07T21:41:26.656Z,2.87
2023-03-07T21:43:55.372Z,2.76
2023-03-07T21:46:23.089Z,2.76
2023-03-07T21:48:50.282Z,2.81
2023-03-07T21:51:17.699Z,2.79
2023-03-07T21:53:44.456Z,2.74
2023-03-07T21:56:19.333Z,2.82
2023-03-07T21:58:50.409Z,2.74
2023-03-07T22:01:22.132Z,2.89
2023-03-07T22:03:53.209Z,2.75
2023-03-07T22:06:20.286Z,2.78
2023-03-07T22:08:47.041Z,2.76
2023-03-07T22:11:14.595Z,2.65
2023-03-07T22:13:42.347Z,2.52
2023-03-07T22:16:15.572Z,2.68
2023-03-07T22:18:42.589Z,2.59
2023-03-07T22:21:14.178Z,2.68
2023-03-07T22:23:42.276Z,2.61
2023-03-07T22:26:11.942Z,2.64
2023-03-07T22:28:40.664Z,2.72
2023-03-07T22:31:12.892Z,2.78
2023-03-07T22:33:40.789Z,2.80
2023-03-07T22:36:10.876Z,2.79
2023-03-07T22:38:37.811Z,2.65
2023-03-07T22:41:08.626Z,2.72
2023-03-07T22:43:36.300Z,2.76
2023-03-07T22:46:04.157Z,2.78
2023-03-07T22:48:31.653Z,2.77
2023-03-07T22:50:58.784Z,2.73
2023-03-07T22:53:31.059Z,2.74
2023-03-07T22:56:01.584Z,2.67
2023-03-07T22:58:29.843Z,2.65
2023-03-07T23:00:56.705Z,2.75
2023-03-07T23:03:23.654Z,2.62
2023-03-07T23:05:50.582Z,2.72
2023-03-07T23:08:17.427Z,2.74
2023-03-07T23:10:44.228Z,2.81
2023-03-07T23:13:10.967Z,2.86
2023-03-07T23:15:41.481Z,2.87
2023-03-07T23:18:09.045Z,2.89
2023-03-07T23:20:39.042Z,2.84
2023-03-07T23:23:06.357Z,2.97
2023-03-07T23:25:33.772Z,2.88
2023-03-07T23:28:00.575Z,2.84
2023-03-07T23:30:27.384Z,2.90
2023-03-07T23:32:55.188Z,2.68
2023-03-07T23:35:21.978Z,2.95
2023-03-07T23:37:48.768Z,2.85
2023-03-07T23:40:15.582Z,2.78
2023-03-07T23:42:42.321Z,2.72
2023-03-07T23:45:09.718Z,2.62
2023-03-07T23:47:36.487Z,2.81
2023-03-07T23:50:03.709Z,2.84
2023-03-07T23:52:30.496Z,2.72
2023-03-07T23:54:57.307Z,2.88
2023-03-07T23:57:24.294Z,2.65
2023-03-07T23:59:51.080Z,2.72
